Time;durP1;ratioP1;P1;durP2;ratioP2;P2;SDS_P1;SDS_P2;PMS_P1;PMS_P2;Temp;Humidity;BMP_temperature;BMP_pressure;BME280_temperature;BME280_humidity;BME280_pressure;Samples;Min_cycle;Max_cycle;Signal;HPM_P1;HPM_P2
2022/09/17 00:00:49;;;;;;;21.92;3.88;;;;;;;12.02;100.00;97357.28;5010737;28;20335;-60
2022/09/17 00:03:15;;;;;;;30.30;4.93;;;;;;;11.39;100.00;97358.13;5008662;28;20526;-57
2022/09/17 00:05:41;;;;;;;24.70;5.07;;;;;;;10.88;100.00;97367.81;5009205;28;20042;-57
2022/09/17 00:08:10;;;;;;;17.38;3.38;;;;;;;11.79;100.00;97376.00;5010931;28;20025;-58
2022/09/17 00:10:41;;;;;;;31.83;4.65;;;;;;;12.13;100.00;97359.25;5009425;28;20099;-58
2022/09/17 00:13:07;;;;;;;15.40;3.30;;;;;;;11.44;100.00;97352.69;5009352;28;20034;-57
2022/09/17 00:15:42;;;;;;;27.73;4.28;;;;;;;12.03;100.00;97353.72;5009115;28;20049;-60
2022/09/17 00:18:07;;;;;;;16.02;2.88;;;;;;;12.18;100.00;97351.16;5009015;28;20028;-58
2022/09/17 00:20:46;;;;;;;32.67;4.78;;;;;;;11.62;100.00;97350.81;5009573;28;20034;-58
2022/09/17 00:23:12;;;;;;;19.90;3.38;;;;;;;11.53;100.00;97360.00;5011106;28;20025;-58
2022/09/17 00:25:39;;;;;;;23.05;3.90;;;;;;;10.86;100.00;97367.91;5008752;28;20136;-57
2022/09/17 00:28:05;;;;;;;23.27;4.05;;;;;;;10.25;100.00;97369.22;5009894;28;20124;-56
2022/09/17 00:30:30;;;;;;;24.10;4.25;;;;;;;10.58;100.00;97379.75;5008269;28;20128;-57
2022/09/17 00:32:56;;;;;;;19.73;3.72;;;;;;;10.49;100.00;97382.00;5010388;28;20108;-62
2022/09/17 00:35:22;;;;;;;22.65;3.90;;;;;;;10.36;100.00;97386.97;5008463;28;20068;-59
2022/09/17 00:37:48;;;;;;;23.67;3.90;;;;;;;10.97;100.00;97393.44;5010211;28;20022;-59
2022/09/17 00:40:13;;;;;;;19.13;3.80;;;;;;;10.89;100.00;97377.34;5007951;28;20030;-59
2022/09/17 00:42:38;;;;;;;24.08;3.95;;;;;;;11.24;100.00;97383.31;5010441;28;20468;-57
2022/09/17 00:45:04;;;;;;;23.67;3.95;;;;;;;11.37;100.00;97367.81;5008514;28;20168;-59
2022/09/17 00:47:35;;;;;;;21.33;3.80;;;;;;;11.89;100.00;97375.41;5009782;28;20040;-58
2022/09/17 00:50:06;;;;;;;22.90;3.63;;;;;;;11.60;100.00;97369.19;5008387;28;20590;-60
2022/09/17 00:52:38;;;;;;;24.60;3.42;;;;;;;11.82;100.00;97365.34;5009289;28;20601;-58
2022/09/17 00:55:16;;;;;;;18.90;3.20;;;;;;;11.57;100.00;97377.19;5010028;28;20040;-58
2022/09/17 00:57:44;;;;;;;19.70;2.85;;;;;;;12.61;100.00;97373.03;5009391;28;20061;-59
2022/09/17 01:00:11;;;;;;;15.52;2.90;;;;;;;11.91;100.00;97376.19;5006453;28;20777;-58
2022/09/17 01:02:37;;;;;;;19.13;3.38;;;;;;;11.66;100.00;97381.91;5009818;28;20140;-58
2022/09/17 01:05:03;;;;;;;21.30;3.55;;;;;;;11.44;100.00;97386.63;5010372;28;20326;-59
2022/09/17 01:07:56;;;;;;;20.35;3.60;;;;;;;11.83;100.00;97385.34;5010984;28;20127;-59
2022/09/17 01:10:48;;;;;;;19.02;3.30;;;;;;;11.48;100.00;97390.75;4990802;28;20029;-58
2022/09/17 01:13:49;;;;;;;18.63;3.30;;;;;;;11.75;100.00;97397.06;5008937;28;20056;-56
2022/09/17 01:16:19;;;;;;;37.58;4.07;;;;;;;11.69;100.00;97386.97;5008812;28;20137;-57
2022/09/17 01:19:32;;;;;;;18.70;2.97;;;;;;;12.06;100.00;97387.53;5009853;28;20018;-59
2022/09/17 01:22:09;;;;;;;17.98;3.13;;;;;;;11.62;100.00;97380.41;4953338;28;20056;-58
2022/09/17 01:24:37;;;;;;;21.20;3.13;;;;;;;12.99;100.00;97397.84;5009694;28;20030;-59
2022/09/17 01:27:25;;;;;;;19.27;3.47;;;;;;;12.21;100.00;97387.59;5008181;28;20041;-58
2022/09/17 01:29:53;;;;;;;21.42;3.38;;;;;;;11.62;100.00;97388.22;5008042;28;20044;-57
2022/09/17 01:32:31;;;;;;;24.05;3.78;;;;;;;11.79;100.00;97399.53;5006426;28;20040;-58
2022/09/17 01:35:05;;;;;;;18.08;3.05;;;;;;;11.74;100.00;97400.63;5009260;28;20035;-59
2022/09/17 01:37:33;;;;;;;22.20;3.63;;;;;;;11.95;100.00;97395.16;5010225;28;20125;-57
2022/09/17 01:40:11;;;;;;;20.63;3.58;;;;;;;12.41;100.00;97382.06;4991658;28;20065;-59
2022/09/17 01:42:53;;;;;;;18.02;3.33;;;;;;;11.88;100.00;97384.16;5007657;28;20034;-57
2022/09/17 01:45:26;;;;;;;24.73;4.10;;;;;;;11.64;100.00;97399.44;5007623;28;20572;-57
2022/09/17 01:48:01;;;;;;;19.08;3.67;;;;;;;11.45;100.00;97406.56;5010425;28;20023;-58
2022/09/17 01:50:38;;;;;;;25.88;4.30;;;;;;;11.75;100.00;97404.91;5007315;28;22916;-56
2022/09/17 01:53:06;;;;;;;16.95;3.42;;;;;;;11.36;100.00;97406.16;5009565;28;20026;-58
2022/09/17 01:55:36;;;;;;;20.65;4.32;;;;;;;11.67;100.00;97399.28;5007990;28;20109;-58
2022/09/17 01:58:09;;;;;;;23.00;3.60;;;;;;;12.04;100.00;97407.69;5008774;28;20030;-58
2022/09/17 02:00:41;;;;;;;34.80;5.03;;;;;;;12.30;100.00;97413.22;5012210;28;20041;-60
2022/09/17 02:03:17;;;;;;;19.42;3.83;;;;;;;12.15;100.00;97405.31;5013661;28;20017;-58
2022/09/17 02:05:59;;;;;;;28.33;4.88;;;;;;;11.86;100.00;97411.31;5013200;28;20050;-59
2022/09/17 02:08:56;;;;;;;23.15;4.40;;;;;;;11.84;100.00;97410.56;5013612;28;20037;-61
2022/09/17 02:11:22;;;;;;;19.00;3.67;;;;;;;12.33;100.00;97403.44;5009693;28;20042;-58
2022/09/17 02:14:09;;;;;;;22.08;4.00;;;;;;;12.46;100.00;97394.84;5009489;28;20064;-59
2022/09/17 02:16:39;;;;;;;15.68;2.97;;;;;;;12.58;100.00;97401.16;5013280;28;20136;-59
2022/09/17 02:19:10;;;;;;;25.30;4.70;;;;;;;12.32;100.00;97393.06;5014188;28;20028;-58
2022/09/17 02:21:38;;;;;;;19.17;4.10;;;;;;;12.51;100.00;97401.50;5011988;28;20038;-60
2022/09/17 02:24:16;;;;;;;18.20;3.70;;;;;;;12.90;100.00;97387.00;5011315;28;20116;-59
2022/09/17 02:26:47;;;;;;;15.50;3.60;;;;;;;12.32;100.00;97393.06;5011557;28;20033;-59
2022/09/17 02:29:29;;;;;;;23.83;3.97;;;;;;;12.46;100.00;97395.72;5010816;28;20026;-58
2022/09/17 02:31:55;;;;;;;;;;;;;;;12.24;100.00;97403.97;5011304;28;20037;-58
2022/09/17 02:34:21;;;;;;;;;;;;;;;12.32;100.00;97393.88;5013266;28;20275;-59
2022/09/17 02:36:46;;;;;;;;;;;;;;;12.35;100.00;97392.84;5012236;28;20012;-61
2022/09/17 02:39:11;;;;;;;;;;;;;;;12.58;100.00;97388.09;5010861;28;19963;-59
2022/09/17 02:41:55;;;;;;;;;;;;;;;12.26;100.00;97380.31;5001957;28;19925;-57
2022/09/17 02:44:28;;;;;;;;;;;;;;;12.23;100.00;97383.13;5013490;28;19910;-60
2022/09/17 02:46:53;;;;;;;;;;;;;;;12.15;100.00;97379.19;5012061;28;19917;-58
2022/09/17 02:49:38;;;;;;;;;;;;;;;12.42;100.00;97375.88;5010773;28;19921;-57
2022/09/17 02:52:03;;;;;;;;;;;;;;;13.26;100.00;97375.22;5008869;28;20021;-58
2022/09/17 02:54:41;;;;;;;;;;;;;;;12.75;100.00;97377.44;5013555;28;19921;-56
2022/09/17 02:57:13;;;;;;;;;;;;;;;12.58;100.00;97378.44;5009912;28;20043;-59
2022/09/17 02:59:57;;;;;;;;;;;;;;;12.91;100.00;97367.75;5010905;28;20378;-56
2022/09/17 03:02:42;;;;;;;;;;;;;;;12.60;100.00;97360.88;5009525;28;19924;-60
2022/09/17 03:05:08;;;;;;;;;;;;;;;13.20;100.00;97362.50;5010545;28;19913;-58
2022/09/17 03:07:33;;;;;;;;;;;;;;;12.93;100.00;97350.16;5012446;28;19909;-57
2022/09/17 03:09:59;;;;;;;;;;;;;;;12.50;100.00;97355.38;5011079;28;19917;-56
2022/09/17 03:12:25;;;;;;;;;;;;;;;12.85;100.00;97352.41;5011076;28;19927;-56
2022/09/17 03:14:51;;;;;;;;;;;;;;;13.19;100.00;97342.47;5012282;28;20453;-60
2022/09/17 03:17:16;;;;;;;;;;;;;;;12.59;100.00;97350.50;5009827;28;19949;-59
2022/09/17 03:19:41;;;;;;;;;;;;;;;12.49;100.00;97340.59;5011599;28;19924;-60
2022/09/17 03:22:06;;;;;;;;;;;;;;;12.92;100.00;97343.25;5009148;28;19925;-60
2022/09/17 03:24:31;;;;;;;;;;;;;;;12.36;100.00;97328.34;5011203;28;19913;-59
2022/09/17 03:26:57;;;;;;;;;;;;;;;12.26;100.00;97335.88;5010422;28;19917;-59
2022/09/17 03:29:22;;;;;;;;;;;;;;;12.37;100.00;97338.72;5011263;28;20354;-59
2022/09/17 03:31:47;;;;;;;;;;;;;;;12.08;100.00;97333.41;5011017;28;19924;-60
2022/09/17 03:34:13;;;;;;;;;;;;;;;12.39;100.00;97334.25;5012262;28;20508;-57
2022/09/17 03:36:38;;;;;;;;;;;;;;;11.85;100.00;97334.69;5012869;28;20081;-58
2022/09/17 03:39:03;;;;;;;;;;;;;;;12.56;100.00;97321.94;5012095;28;20019;-57
2022/09/17 03:41:28;;;;;;;;;;;;;;;13.51;100.00;97326.56;5010834;28;19916;-59
2022/09/17 03:43:54;;;;;;;;;;;;;;;12.76;100.00;97316.34;5011596;28;19940;-58
2022/09/17 03:46:19;;;;;;;;;;;;;;;13.15;100.00;97321.84;5010202;28;19917;-58
2022/09/17 03:48:45;;;;;;;;;;;;;;;12.46;100.00;97321.63;5012110;28;19913;-60
2022/09/17 03:51:10;;;;;;;;;;;;;;;12.42;100.00;97323.56;5009225;28;19922;-57
2022/09/17 03:53:35;;;;;;;;;;;;;;;12.83;100.00;97327.25;5010989;28;19913;-57
2022/09/17 03:56:02;;;;;;;;;;;;;;;12.96;100.00;97329.97;5010405;28;19952;-57
2022/09/17 03:58:28;;;;;;;;;;;;;;;12.95;100.00;97328.28;5011698;28;19917;-59
2022/09/17 04:00:56;;;;;;;;;;;;;;;13.37;100.00;97322.19;5009404;28;20330;-60
2022/09/17 04:03:22;;;;;;;;;;;;;;;12.65;100.00;97321.38;5011357;28;19922;-58
2022/09/17 04:05:47;;;;;;;;;;;;;;;11.94;100.00;97333.34;5010782;28;19923;-58
2022/09/17 04:08:12;;;;;;;;;;;;;;;12.49;100.00;97324.06;5013239;28;19913;-58
2022/09/17 04:10:37;;;;;;;;;;;;;;;13.14;100.00;97331.47;5010762;28;20402;-58
2022/09/17 04:13:02;;;;;;;;;;;;;;;12.64;100.00;97322.31;5007982;28;20387;-60
2022/09/17 04:15:28;;;;;;;;;;;;;;;13.10;100.00;97319.50;5008881;28;19917;-59
2022/09/17 04:17:59;;;;;;;;;;;;;;;13.10;100.00;97327.34;5010654;28;20040;-55
2022/09/17 04:20:24;;;;;;;;;;;;;;;13.58;100.00;97327.88;5009523;28;19917;-59
2022/09/17 04:22:49;;;;;;;;;;;;;;;13.58;100.00;97320.00;5007952;28;19917;-59
2022/09/17 04:25:15;;;;;;;;;;;;;;;13.52;100.00;97319.53;5008991;28;19909;-60
2022/09/17 04:27:40;;;;;;;;;;;;;;;13.21;100.00;97311.81;5010619;28;19944;-58
2022/09/17 04:30:06;;;;;;;;;;;;;;;13.05;100.00;97311.06;5009861;28;19917;-58
2022/09/17 04:32:31;;;;;;;;;;;;;;;13.34;100.00;97319.75;5008456;28;20849;-59
2022/09/17 04:34:56;;;;;;;;;;;;;;;13.52;100.00;97317.75;5010343;28;19920;-57
2022/09/17 04:37:24;;;;;;;;;;;;;;;12.91;100.00;97315.38;5009168;28;20165;-59
2022/09/17 04:39:49;;;;;;;;;;;;;;;13.65;100.00;97316.03;5010143;28;20115;-58
2022/09/17 04:42:15;;;;;;;;;;;;;;;13.59;100.00;97311.19;5008889;28;20019;-58
2022/09/17 04:44:40;;;;;;;;;;;;;;;14.11;100.00;97303.50;5009471;28;19920;-56
2022/09/17 04:47:05;;;;;;;;;;;;;;;12.74;100.00;97302.50;5008757;28;19916;-58
2022/09/17 04:49:31;;;;;;;;;;;;;;;13.21;100.00;97303.13;5011396;28;19964;-59
2022/09/17 04:51:56;;;;;;;;;;;;;;;13.25;100.00;97313.31;5007822;28;19917;-59
2022/09/17 04:54:22;;;;;;;;;;;;;;;13.42;100.00;97311.44;5011533;28;20364;-59
2022/09/17 04:56:47;;;;;;;;;;;;;;;12.86;100.00;97314.00;5008288;28;20373;-57
2022/09/17 04:59:12;;;;;;;;;;;;;;;12.98;100.00;97309.78;5010125;28;20033;-58
2022/09/17 05:01:38;;;;;;;;;;;;;;;13.22;100.00;97329.22;5008030;28;19917;-58
2022/09/17 05:04:03;;;;;;;;;;;;;;;13.17;100.00;97331.25;5010484;28;19924;-58
2022/09/17 05:06:28;;;;;;;;;;;;;;;12.58;100.00;97331.34;5011112;28;19917;-57
2022/09/17 05:08:53;;;;;;;;;;;;;;;13.41;100.00;97328.09;5011506;28;20007;-58
2022/09/17 05:11:18;;;;;;;;;;;;;;;13.11;100.00;97329.03;5007294;28;20571;-57
2022/09/17 05:13:44;;;;;;;;;;;;;;;13.51;100.00;97334.44;5009000;28;20370;-59
2022/09/17 05:16:09;;;;;;;;;;;;;;;13.06;100.00;97338.94;5008315;28;20003;-59
2022/09/17 05:18:34;;;;;;;;;;;;;;;13.29;100.00;97337.53;5009766;28;19936;-58
2022/09/17 05:20:59;;;;;;;;;;;;;;;13.67;100.00;97342.13;5007669;28;19917;-59
2022/09/17 05:23:24;;;;;;;;;;;;;;;13.43;100.00;97344.53;5009895;28;19913;-60
2022/09/17 05:25:51;;;;;;;;;;;;;;;13.21;100.00;97332.75;5008513;28;20208;-58
2022/09/17 05:28:17;;;;;;;;;;;;;;;13.03;100.00;97331.28;5009490;28;19913;-59
2022/09/17 05:30:42;;;;;;;;;;;;;;;13.26;100.00;97341.16;5007308;28;20016;-60
2022/09/17 05:33:07;;;;;;;;;;;;;;;12.91;100.00;97331.09;5008815;28;19936;-59
2022/09/17 05:35:34;;;;;;;;;;;;;;;13.11;100.00;97331.66;5009009;28;19932;-59
2022/09/17 05:38:00;;;;;;;;;;;;;;;13.83;100.00;97328.91;5009065;28;19964;-59
2022/09/17 05:40:26;;;;;;;;;;;;;;;13.38;100.00;97333.50;5006486;28;19917;-61
2022/09/17 05:42:56;;;;;;;;;;;;;;;13.09;100.00;97323.06;5008796;28;19913;-60
2022/09/17 05:45:21;;;;;;;;;;;;;;;13.05;100.00;97334.63;5009178;28;19916;-58
2022/09/17 05:47:47;;;;;;;;;;;;;;;13.74;100.00;97339.97;5010381;28;19916;-58
2022/09/17 05:50:12;;;;;;;;;;;;;;;13.59;100.00;97337.38;5008034;28;19917;-60
2022/09/17 05:52:37;;;;;;;;;;;;;;;13.29;100.00;97340.16;5007365;28;19932;-60
2022/09/17 05:55:03;;;;;;;;;;;;;;;13.90;100.00;97353.78;5007951;28;19914;-59
2022/09/17 05:57:29;;;;;;;;;;;;;;;13.80;100.00;97355.28;5009046;28;19933;-59
2022/09/17 05:59:54;;;;;;;;;;;;;;;13.47;100.00;97364.34;5009826;28;19951;-57
2022/09/17 06:02:19;;;;;;;;;;;;;;;13.16;100.00;97368.00;5007583;28;20035;-59
2022/09/17 06:04:44;;;;;;;;;;;;;;;13.52;100.00;97367.53;5010700;28;19920;-60
2022/09/17 06:07:10;;;;;;;;;;;;;;;13.70;100.00;97365.53;5008059;28;19914;-61
2022/09/17 06:09:36;;;;;;;;;;;;;;;12.94;100.00;97361.50;5008876;28;19916;-59
2022/09/17 06:12:02;;;;;;;;;;;;;;;13.44;100.00;97369.81;5007497;28;20371;-60
2022/09/17 06:14:27;;;;;;;;;;;;;;;13.05;100.00;97379.13;5009686;28;19913;-60
2022/09/17 06:16:54;;;;;;;;;;;;;;;13.10;100.00;97377.09;5009677;28;19921;-60
2022/09/17 06:19:19;;;;;;;;;;;;;;;13.44;100.00;97380.28;5009140;28;19944;-60
2022/09/17 06:21:45;;;;;;;;;;;;;;;13.05;100.00;97373.91;5009027;28;19965;-58
2022/09/17 06:24:11;;;;;;;;;;;;;;;12.98;100.00;97377.84;5008376;28;19947;-59
2022/09/17 06:26:36;;;;;;;;;;;;;;;12.84;100.00;97384.75;5007344;28;19921;-57
2022/09/17 06:29:01;;;;;;;;;;;;;;;13.07;100.00;97388.59;5006281;28;19928;-60
2022/09/17 06:31:26;;;;;;;;;;;;;;;12.83;100.00;97390.06;5008511;28;19979;-60
2022/09/17 06:33:52;;;;;;;;;;;;;;;13.25;100.00;97391.88;5008682;28;19913;-61
2022/09/17 06:36:17;;;;;;;;;;;;;;;12.42;100.00;97401.19;5007384;28;19995;-60
2022/09/17 06:38:42;;;;;;;;;;;;;;;12.37;100.00;97398.88;5009246;28;19984;-59
2022/09/17 06:41:07;;;;;;;;;;;;;;;12.66;100.00;97404.16;5006929;28;19917;-60
2022/09/17 06:43:33;;;;;;;;;;;;;;;12.51;100.00;97416.34;5010036;28;19917;-59
2022/09/17 06:45:59;;;;;;;;;;;;;;;12.56;100.00;97410.88;5010025;28;19973;-59
2022/09/17 06:48:26;;;;;;;;;;;;;;;12.37;100.00;97414.56;5012529;28;20294;-57
2022/09/17 06:50:53;;;;;;;;;;;;;;;12.95;100.00;97404.22;5011068;28;19917;-58
2022/09/17 06:53:18;;;;;;;;;;;;;;;13.03;100.00;97408.06;5013088;28;19913;-58
2022/09/17 06:55:44;;;;;;;;;;;;;;;12.95;100.00;97406.81;5010961;28;19925;-58
2022/09/17 06:58:09;;;;;;;;;;;;;;;12.72;100.00;97411.66;5012131;28;19924;-59
2022/09/17 07:00:35;;;;;;;;;;;;;;;12.81;100.00;97418.97;5010875;28;19921;-59
2022/09/17 07:03:00;;;;;;;;;;;;;;;12.81;100.00;97413.72;5011203;28;19967;-59
2022/09/17 07:05:27;;;;;;;;;;;;;;;12.14;100.00;97424.53;5012344;28;19951;-59
2022/09/17 07:07:52;;;;;;;;;;;;;;;12.38;100.00;97421.47;5013071;28;19913;-58
2022/09/17 07:10:18;;;;;;;;;;;;;;;12.82;100.00;97425.88;5011180;28;19995;-59
2022/09/17 07:12:43;;;;;;;;;;;;;;;12.52;100.00;97418.88;5009953;28;20020;-58
2022/09/17 07:15:12;;;;;;;;;;;;;;;12.95;100.00;97427.75;5011872;28;20515;-59
2022/09/17 07:17:39;;;;;;;;;;;;;;;12.21;100.00;97439.91;5008855;28;20369;-60
2022/09/17 07:20:07;;;;;;;;;;;;;;;12.42;100.00;97433.41;5012142;28;19913;-58
2022/09/17 07:22:33;;;;;;;;;;;;;;;12.95;100.00;97441.69;5010453;28;20438;-58
2022/09/17 07:24:58;;;;;;;;;;;;;;;12.62;100.00;97428.81;5010983;28;19959;-58
2022/09/17 07:27:26;;;;;;;;;;;;;;;12.76;100.00;97439.31;5012110;28;20390;-57
2022/09/17 07:29:51;;;;;;;;;;;;;;;13.13;100.00;97441.53;5012844;28;19948;-59
2022/09/17 07:32:16;;;;;;;;;;;;;;;12.78;100.00;97447.09;5008574;28;19957;-58
2022/09/17 07:34:41;;;;;;;;;;;;;;;12.90;100.00;97452.44;5011919;28;19955;-58
2022/09/17 07:37:07;;;;;;;;;;;;;;;13.13;100.00;97439.75;5010107;28;20044;-57
2022/09/17 07:39:32;;;;;;;;;;;;;;;12.64;100.00;97448.72;5011254;28;19913;-58
2022/09/17 07:41:57;;;;;;;;;;;;;;;13.06;100.00;97460.22;5008222;28;19921;-57
2022/09/17 07:44:23;;;;;;;;;;;;;;;12.88;100.00;97459.53;5010060;28;19920;-58
2022/09/17 07:46:48;;;;;;;;;;;;;;;13.30;100.00;97447.44;5011218;28;19940;-58
2022/09/17 07:49:13;;;;;;;;;;;;;;;12.58;100.00;97459.53;5009552;28;19913;-59
2022/09/17 07:51:38;;;;;;;;;;;;;;;13.13;100.00;97455.47;5009417;28;19917;-58
2022/09/17 07:54:05;;;;;;;;;;;;;;;12.47;100.00;97465.38;5012028;28;19909;-60
2022/09/17 07:56:30;;;;;;;;;;;;;;;13.01;100.00;97462.28;5010254;28;19917;-57
2022/09/17 07:58:55;;;;;;;;;;;;;;;13.23;100.00;97474.06;5011558;28;19913;-60
2022/09/17 08:01:21;;;;;;;;;;;;;;;12.82;100.00;97467.75;5009088;28;19924;-56
2022/09/17 08:03:51;;;;;;;;;;;;;;;13.22;100.00;97475.84;5010887;28;20695;-57
2022/09/17 08:06:18;;;;;;;;;;;;;;;13.46;100.00;97462.25;5010781;28;19960;-58
2022/09/17 08:08:43;;;;;;;;;;;;;;;13.35;100.00;97475.16;5012229;28;19917;-59
2022/09/17 08:11:13;;;;;;;;;;;;;;;13.18;100.00;97478.72;5008579;28;20239;-59
2022/09/17 08:13:39;;;;;;;;;;;;;;;13.07;100.00;97482.03;5009881;28;20306;-57
2022/09/17 08:16:05;;;;;;;;;;;;;;;14.14;100.00;97489.50;5010666;28;20556;-58
2022/09/17 08:18:31;;;;;;;;;;;;;;;13.13;100.00;97481.63;5008872;28;19929;-57
2022/09/17 08:20:57;;;;;;;;;;;;;;;13.53;100.00;97481.03;5008744;28;19917;-59
2022/09/17 08:23:23;;;;;;;;;;;;;;;13.62;100.00;97483.09;5007819;28;19909;-59
2022/09/17 08:25:54;;;;;;;;;;;;;;;13.62;100.00;97483.94;5011677;28;19974;-58
2022/09/17 08:28:20;;;;;;;;;;;;;;;14.45;100.00;97483.94;5010897;28;19917;-60
2022/09/17 08:30:47;;;;;;;;;;;;;;;13.81;100.00;97486.25;5010415;28;19917;-59
2022/09/17 08:33:12;;;;;;;;;;;;;;;13.95;100.00;97490.66;5009309;28;20402;-58
2022/09/17 08:35:37;;;;;;;;;;;;;;;13.86;100.00;97491.22;5009729;28;20378;-58
2022/09/17 08:38:02;;;;;;;;;;;;;;;13.57;100.00;97499.09;5009210;28;20025;-59
2022/09/17 08:40:28;;;;;;;;;;;;;;;14.17;100.00;97494.53;4991611;28;20023;-58
2022/09/17 08:43:02;;;;;;;;;;;;;;;13.72;100.00;97491.25;5010584;28;20039;-57
2022/09/17 08:45:28;;;;;;;;;;;;;;;13.88;100.00;97495.44;5009706;28;19917;-59
2022/09/17 08:48:04;;;;;;;;;;;;;;;13.88;100.00;97494.59;5009972;28;19925;-59
2022/09/17 08:50:37;;;;;;;;;;;;;;;13.48;100.00;97508.34;5005003;28;19917;-58
2022/09/17 08:53:10;;;;;;;;;;;;;;;13.91;100.00;97507.50;5011135;28;19962;-60
2022/09/17 08:55:41;;;;;;;;;;;;;;;13.75;100.00;97512.00;5000782;28;19978;-58
2022/09/17 08:58:13;;;;;;;;;;;;;;;13.48;100.00;97521.47;5010891;28;19917;-57
2022/09/17 09:00:42;;;;;;;;;;;;;;;14.26;100.00;97530.66;5010095;28;20020;-58
2022/09/17 09:03:13;;;;;;;;;;;;;;;13.78;100.00;97515.28;5009883;28;20023;-57
2022/09/17 09:05:38;;;;;;;;;;;;;;;13.27;100.00;97528.81;5009855;28;20379;-59
2022/09/17 09:08:13;;;;;;;;;;;;;;;14.07;100.00;97523.94;5007235;28;19971;-59
2022/09/17 09:10:55;;;;;;;;;;;;;;;13.19;100.00;97523.16;5008182;28;19916;-59
2022/09/17 09:13:23;;;;;;;;;;;;;;;13.80;100.00;97523.03;5008736;28;20943;-57
2022/09/17 09:15:54;;;;;;;;;;;;;;;14.12;100.00;97530.72;5005548;28;20386;-59
2022/09/17 09:18:21;;;;;;;;;;;;;;;13.87;100.00;97519.09;5007500;28;19978;-58
2022/09/17 09:21:02;;;;;;;;;;;;;;;14.45;100.00;97518.06;5007154;28;19913;-57
2022/09/17 09:23:30;;;;;;;;;;;;;;;14.46;100.00;97508.41;5008033;28;19917;-58
2022/09/17 09:26:05;;;;;;;;;;;;;;;14.89;100.00;97513.50;5005007;28;19943;-58
2022/09/17 09:28:31;;;;;;;;;;;;;;;15.30;100.00;97501.16;5008486;28;20375;-58
2022/09/17 09:31:29;;;;;;;;;;;;;;;16.00;100.00;97491.00;5008592;28;19921;-58
2022/09/17 09:33:55;;;;;;;;;;;;;;;16.89;100.00;97488.13;4964738;28;20720;-59
2022/09/17 09:36:21;;;;;;;;;;;;;;;16.83;100.00;97483.31;5010352;28;20709;-57
2022/09/17 09:38:53;;;;;;;;;;;;;;;17.28;100.00;97480.81;5010307;28;20629;-59
2022/09/17 09:41:26;;;;;;;;;;;;;;;16.76;100.00;97478.50;5006008;28;19925;-59
2022/09/17 09:44:02;;;;;;;;;;;;;;;16.40;100.00;97497.00;5008785;28;19948;-59
2022/09/17 09:46:37;;;;;;;;;;;;;;;17.20;100.00;97488.44;5007666;28;19924;-60
2022/09/17 09:49:05;;;;;;;;;;;;;;;17.03;100.00;97480.03;5010842;28;19909;-61
2022/09/17 09:51:30;;;;;;;;;;;;;;;16.84;100.00;97488.50;5006291;28;19917;-59
2022/09/17 09:53:55;;;;;;;;;;;;;;;15.72;100.00;97491.25;5008420;28;19920;-61
2022/09/17 09:56:33;;;;;;;;;;;;;;;16.03;100.00;97489.09;5010169;28;19920;-61
2022/09/17 09:58:58;;;;;;;;;;;;;;;16.83;100.00;97488.59;5010232;28;19917;-56
2022/09/17 10:01:28;;;;;;;;;;;;;;;16.90;100.00;97476.66;5006658;28;19928;-59
2022/09/17 10:03:57;;;;;;;;;;;;;;;17.24;100.00;97477.56;5008776;28;19917;-57
2022/09/17 10:06:22;;;;;;;;;;;;;;;17.22;100.00;97479.50;5003858;28;19928;-58
2022/09/17 10:08:54;;;;;;;;;;;;;;;16.55;100.00;97480.06;4989191;28;19913;-58
2022/09/17 10:11:21;;;;;;;;;;;;;;;17.02;100.00;97472.22;5005787;28;19971;-57
2022/09/17 10:13:46;;;;;;;;;;;;;;;16.62;100.00;97476.03;5004931;28;19917;-58
2022/09/17 10:16:19;;;;;;;;;;;;;;;16.98;100.00;97471.63;5010203;28;19924;-59
2022/09/17 10:18:45;;;;;;;;;;;;;;;16.76;100.00;97467.09;5009361;28;19940;-59
2022/09/17 10:21:21;;;;;;;;;;;;;;;16.13;100.00;97475.19;5008521;28;19952;-57
2022/09/17 10:23:46;;;;;;;;;;;;;;;16.66;100.00;97472.22;5010708;28;19913;-57
2022/09/17 10:26:47;;;;;;;;;;;;;;;16.55;100.00;97461.66;5010516;28;19987;-57
2022/09/17 10:29:17;;;;;;;;;;;;;;;17.11;100.00;97472.41;4953834;28;19914;-56
2022/09/17 10:31:55;;;;;;;;;;;;;;;16.83;100.00;97481.53;4995687;28;19929;-56
2022/09/17 10:34:28;;;;;;;;;;;;;;;17.54;100.00;97473.53;5005574;28;19928;-57
2022/09/17 10:36:55;;;;;;;;;;;;;;;17.12;100.00;97478.50;5007464;28;19925;-58
2022/09/17 10:39:43;;;;;;;;;;;;;;;17.17;100.00;97472.88;5009897;28;19920;-61
2022/09/17 10:42:15;;;;;;;;;;;;;;;17.22;100.00;97481.25;5010042;28;20417;-57
2022/09/17 10:44:53;;;;;;;;;;;;;;;18.72;100.00;97462.41;5009902;28;19913;-59
2022/09/17 10:47:22;;;;;;;;;;;;;;;18.68;100.00;97454.72;5009830;28;19917;-58
2022/09/17 10:49:52;;;;;;;;;;;;;;;18.96;100.00;97449.81;5007801;28;19917;-56
2022/09/17 10:52:23;;;;;;;;;;;;;;;18.21;100.00;97450.69;5009151;28;19920;-58
2022/09/17 10:55:04;;;;;;;;;;;;;;;17.59;100.00;97446.78;5008885;28;19928;-58
2022/09/17 10:57:39;;;;;;;;;;;;;;;18.13;100.00;97447.84;5009997;28;19921;-57
2022/09/17 11:00:12;;;;;;;;;;;;;;;18.32;100.00;97448.00;5009211;28;20001;-59
2022/09/17 11:02:49;;;;;;;;;;;;;;;17.31;100.00;97441.03;5008333;28;19928;-59
2022/09/17 11:05:28;;;;;;;;;;;;;;;17.88;100.00;97440.09;5007219;28;19913;-58
2022/09/17 11:08:13;;;;;;;;;;;;;;;16.96;100.00;97436.66;5008185;28;20339;-59
2022/09/17 11:10:45;;;;;;;;;;;;;;;16.89;100.00;97431.03;4968885;28;19916;-58
2022/09/17 11:13:26;;;;;;;;;;;;;;;17.17;100.00;97444.75;5009776;28;19917;-57
2022/09/17 11:16:14;;;;;;;;;;;;;;;17.79;100.00;97442.56;5009256;28;19917;-56
2022/09/17 11:18:41;;;;;;;;;;;;;;;16.62;100.00;97448.88;5008934;28;19917;-57
2022/09/17 11:21:18;;;;;;;;;;;;;;;16.48;100.00;97439.38;4990198;28;19971;-57
2022/09/17 11:23:53;;;;;;;;;;;;;;;16.17;100.00;97445.09;5005888;28;19917;-58
2022/09/17 11:26:24;;;;;;;;;;;;;;;17.40;100.00;97439.47;5008404;28;20718;-56
2022/09/17 11:29:16;;;;;;;;;;;;;;;17.70;100.00;97441.53;5007782;28;20012;-58
2022/09/17 11:31:41;;;;;;;;;;;;;;;18.05;100.00;97427.34;5005207;28;19918;-57
2022/09/17 11:34:26;;;;;;;;;;;;;;;18.10;100.00;97427.78;5007866;28;19935;-58
2022/09/17 11:37:10;;;;;;;;;;;;;;;18.27;100.00;97419.38;5009094;28;19921;-58
2022/09/17 11:39:40;;;;;;;;;;;;;;;18.35;100.00;97426.66;5009012;28;20035;-59
2022/09/17 11:42:09;;;;;;;;;;;;;;;17.27;100.00;97423.78;5007824;28;19917;-58
2022/09/17 11:44:40;;;;;;;;;;;;;;;17.77;100.00;97426.03;5007974;28;19917;-59
2022/09/17 11:47:12;;;;;;;;;;;;;;;18.03;100.00;97416.91;5009270;28;19936;-58
2022/09/17 11:49:56;;;;;;;;;;;;;;;18.05;100.00;97425.53;5008594;28;19913;-57
2022/09/17 11:52:24;;;;;;;;;;;;;;;18.07;100.00;97420.16;5008009;28;20477;-57
2022/09/17 11:55:04;;;;;;;;;;;;;;;17.57;100.00;97414.41;5006250;28;19913;-55
2022/09/17 11:57:33;;;;;;;;;;;;;;;17.69;100.00;97413.47;5010246;28;20047;-57
2022/09/17 12:00:12;;;;;;;;;;;;;;;17.43;100.00;97413.72;5009422;28;19913;-56
2022/09/17 12:02:43;;;;;;;;;;;;;;;17.50;100.00;97414.09;5007491;28;19917;-57
2022/09/17 12:05:14;;;;;;;;;;;;;;;17.26;100.00;97414.19;5006003;28;20011;-55
2022/09/17 12:07:40;;;;;;;;;;;;;;;16.51;100.00;97405.75;5009036;28;20039;-56
2022/09/17 12:10:05;;;;;;;;;;;;;;;16.61;100.00;97399.81;5006412;28;19919;-58
2022/09/17 12:12:30;;;;;;;;;;;;;;;17.96;100.00;97399.91;5008027;28;20478;-58
2022/09/17 12:15:00;;;;;;;;;;;;;;;18.57;100.00;97393.19;5009267;28;19924;-61
2022/09/17 12:17:30;;;;;;;;;;;;;;;18.67;100.00;97400.22;4983307;28;20401;-59
2022/09/17 12:20:03;;;;;;;;;;;;;;;17.85;100.00;97384.09;5006963;28;20633;-62
2022/09/17 12:22:33;;;;;;;;;;;;;;;18.10;100.00;97394.34;5004179;28;19917;-57
2022/09/17 12:25:00;;;;;;;;;;;;;;;17.36;100.00;97407.25;5008774;28;19976;-57
2022/09/17 12:27:44;;;;;;;;;;;;;;;16.94;100.00;97399.06;5006232;28;19917;-56
2022/09/17 12:30:12;;;;;;;;;;;;;;;16.32;100.00;97402.78;5007906;28;20705;-56
2022/09/17 12:32:47;;;;;;;;;;;;;;;15.59;100.00;97402.72;5005979;28;19913;-58